sensor_id;sensor_type;location;lat;lon;timestamp;P1;durP1;ratioP1;P2;durP2;ratioP2
81627;SDS011;71036;51.102;6.514;2024-03-23T00:55:32;7.83;;;4.37;;
81627;SDS011;71036;51.102;6.514;2024-03-23T00:57:57;22.53;;;3.80;;
81627;SDS011;71036;51.102;6.514;2024-03-23T01:00:22;9.67;;;2.70;;
81627;SDS011;71036;51.102;6.514;2024-03-23T01:02:48;7.33;;;2.13;;
81627;SDS011;71036;51.102;6.514;2024-03-23T01:05:13;6.70;;;2.87;;
81627;SDS011;71036;51.102;6.514;2024-03-23T01:07:39;7.93;;;2.80;;
81627;SDS011;71036;51.102;6.514;2024-03-23T01:10:04;4.90;;;2.30;;
81627;SDS011;71036;51.102;6.514;2024-03-23T01:12:29;7.87;;;2.10;;
81627;SDS011;71036;51.102;6.514;2024-03-23T01:14:55;3.97;;;1.93;;
81627;SDS011;71036;51.102;6.514;2024-03-23T01:17:20;6.70;;;3.20;;
81627;SDS011;71036;51.102;6.514;2024-03-23T01:19:45;24.97;;;2.80;;
81627;SDS011;71036;51.102;6.514;2024-03-23T01:22:10;12.87;;;3.80;;
81627;SDS011;71036;51.102;6.514;2024-03-23T01:24:36;13.07;;;2.77;;
81627;SDS011;71036;51.102;6.514;2024-03-23T01:27:01;12.20;;;3.17;;
81627;SDS011;71036;51.102;6.514;2024-03-23T01:29:27;10.70;;;2.30;;
81627;SDS011;71036;51.102;6.514;2024-03-23T01:31:52;11.60;;;3.50;;
81627;SDS011;71036;51.102;6.514;2024-03-23T01:34:17;6.10;;;1.93;;
81627;SDS011;71036;51.102;6.514;2024-03-23T01:36:42;10.90;;;3.40;;
81627;SDS011;71036;51.102;6.514;2024-03-23T01:39:08;12.90;;;1.80;;
81627;SDS011;71036;51.102;6.514;2024-03-23T01:41:36;8.40;;;1.43;;
81627;SDS011;71036;51.102;6.514;2024-03-23T01:44:04;12.43;;;2.17;;
81627;SDS011;71036;51.102;6.514;2024-03-23T01:46:34;6.03;;;1.73;;
81627;SDS011;71036;51.102;6.514;2024-03-23T01:49:00;10.13;;;1.53;;
81627;SDS011;71036;51.102;6.514;2024-03-23T01:51:26;12.50;;;2.23;;
81627;SDS011;71036;51.102;6.514;2024-03-23T01:53:52;5.57;;;1.27;;
81627;SDS011;71036;51.102;6.514;2024-03-23T01:56:19;6.13;;;1.63;;
81627;SDS011;71036;51.102;6.514;2024-03-23T01:58:45;9.23;;;1.73;;
81627;SDS011;71036;51.102;6.514;2024-03-23T02:01:10;4.40;;;1.50;;
81627;SDS011;71036;51.102;6.514;2024-03-23T02:03:35;10.27;;;1.83;;
81627;SDS011;71036;51.102;6.514;2024-03-23T02:06:01;8.37;;;1.40;;
81627;SDS011;71036;51.102;6.514;2024-03-23T02:08:27;11.93;;;1.37;;
81627;SDS011;71036;51.102;6.514;2024-03-23T02:10:52;2.40;;;1.10;;
81627;SDS011;71036;51.102;6.514;2024-03-23T02:13:18;3.80;;;0.97;;
81627;SDS011;71036;51.102;6.514;2024-03-23T02:15:44;3.33;;;1.10;;
81627;SDS011;71036;51.102;6.514;2024-03-23T02:18:09;7.90;;;1.40;;
81627;SDS011;71036;51.102;6.514;2024-03-23T02:20:35;2.70;;;1.10;;
81627;SDS011;71036;51.102;6.514;2024-03-23T02:23:01;12.47;;;1.47;;
81627;SDS011;71036;51.102;6.514;2024-03-23T02:25:27;7.30;;;1.97;;
81627;SDS011;71036;51.102;6.514;2024-03-23T02:27:52;8.30;;;2.07;;
81627;SDS011;71036;51.102;6.514;2024-03-23T02:30:19;5.17;;;1.30;;
81627;SDS011;71036;51.102;6.514;2024-03-23T02:32:45;3.23;;;1.20;;
81627;SDS011;71036;51.102;6.514;2024-03-23T02:35:10;4.27;;;1.67;;
81627;SDS011;71036;51.102;6.514;2024-03-23T02:37:35;12.53;;;1.80;;
81627;SDS011;71036;51.102;6.514;2024-03-23T02:40:00;6.33;;;1.40;;
81627;SDS011;71036;51.102;6.514;2024-03-23T02:42:26;4.90;;;1.40;;
81627;SDS011;71036;51.102;6.514;2024-03-23T02:44:51;8.27;;;1.67;;
81627;SDS011;71036;51.102;6.514;2024-03-23T02:47:16;5.23;;;1.20;;
81627;SDS011;71036;51.102;6.514;2024-03-23T02:49:42;12.47;;;1.90;;
81627;SDS011;71036;51.102;6.514;2024-03-23T02:52:08;3.07;;;1.27;;
81627;SDS011;71036;51.102;6.514;2024-03-23T02:54:33;6.80;;;1.60;;
81627;SDS011;71036;51.102;6.514;2024-03-23T02:56:58;5.17;;;1.73;;
81627;SDS011;71036;51.102;6.514;2024-03-23T02:59:24;8.67;;;1.60;;
81627;SDS011;71036;51.102;6.514;2024-03-23T03:01:49;2.97;;;1.33;;
81627;SDS011;71036;51.102;6.514;2024-03-23T03:04:15;14.53;;;1.50;;
81627;SDS011;71036;51.102;6.514;2024-03-23T03:06:40;6.83;;;1.60;;
81627;SDS011;71036;51.102;6.514;2024-03-23T03:09:06;7.80;;;1.50;;
81627;SDS011;71036;51.102;6.514;2024-03-23T03:11:31;5.10;;;1.60;;
81627;SDS011;71036;51.102;6.514;2024-03-23T03:13:56;6.23;;;2.07;;
81627;SDS011;71036;51.102;6.514;2024-03-23T03:16:22;10.30;;;2.70;;
81627;SDS011;71036;51.102;6.514;2024-03-23T03:18:47;2.20;;;1.03;;
81627;SDS011;71036;51.102;6.514;2024-03-23T03:21:12;10.53;;;2.00;;
81627;SDS011;71036;51.102;6.514;2024-03-23T03:23:38;12.53;;;2.17;;
81627;SDS011;71036;51.102;6.514;2024-03-23T03:26:04;8.70;;;2.13;;
81627;SDS011;71036;51.102;6.514;2024-03-23T03:28:30;14.90;;;2.33;;
81627;SDS011;71036;51.102;6.514;2024-03-23T03:30:57;15.80;;;1.73;;
81627;SDS011;71036;51.102;6.514;2024-03-23T03:33:22;16.60;;;2.73;;
81627;SDS011;71036;51.102;6.514;2024-03-23T03:35:48;6.40;;;2.00;;
81627;SDS011;71036;51.102;6.514;2024-03-23T03:38:13;19.00;;;2.60;;
81627;SDS011;71036;51.102;6.514;2024-03-23T03:40:38;9.90;;;1.80;;
81627;SDS011;71036;51.102;6.514;2024-03-23T03:43:03;12.83;;;3.10;;
81627;SDS011;71036;51.102;6.514;2024-03-23T03:45:29;7.17;;;1.90;;
81627;SDS011;71036;51.102;6.514;2024-03-23T03:47:54;12.50;;;2.87;;
81627;SDS011;71036;51.102;6.514;2024-03-23T03:50:21;13.40;;;2.00;;
81627;SDS011;71036;51.102;6.514;2024-03-23T03:52:46;19.90;;;2.87;;
81627;SDS011;71036;51.102;6.514;2024-03-23T03:55:12;6.47;;;1.73;;
81627;SDS011;71036;51.102;6.514;2024-03-23T03:57:39;9.23;;;1.50;;
81627;SDS011;71036;51.102;6.514;2024-03-23T04:00:04;18.43;;;2.30;;
81627;SDS011;71036;51.102;6.514;2024-03-23T04:02:30;25.53;;;2.30;;
81627;SDS011;71036;51.102;6.514;2024-03-23T04:04:56;7.33;;;2.23;;
81627;SDS011;71036;51.102;6.514;2024-03-23T04:07:21;7.80;;;1.53;;
81627;SDS011;71036;51.102;6.514;2024-03-23T04:09:47;7.60;;;1.97;;
81627;SDS011;71036;51.102;6.514;2024-03-23T04:12:13;11.20;;;2.43;;
81627;SDS011;71036;51.102;6.514;2024-03-23T04:14:39;13.03;;;2.20;;
81627;SDS011;71036;51.102;6.514;2024-03-23T04:17:04;16.20;;;2.10;;
81627;SDS011;71036;51.102;6.514;2024-03-23T04:19:29;9.50;;;2.23;;
81627;SDS011;71036;51.102;6.514;2024-03-23T04:21:55;9.37;;;1.83;;
81627;SDS011;71036;51.102;6.514;2024-03-23T04:24:20;30.23;;;1.70;;
81627;SDS011;71036;51.102;6.514;2024-03-23T04:26:47;37.07;;;3.10;;
81627;SDS011;71036;51.102;6.514;2024-03-23T04:29:12;8.53;;;2.37;;
81627;SDS011;71036;51.102;6.514;2024-03-23T04:31:38;11.80;;;2.80;;
81627;SDS011;71036;51.102;6.514;2024-03-23T04:34:03;9.80;;;2.53;;
81627;SDS011;71036;51.102;6.514;2024-03-23T04:36:29;19.47;;;3.27;;
81627;SDS011;71036;51.102;6.514;2024-03-23T04:38:55;14.67;;;3.83;;
81627;SDS011;71036;51.102;6.514;2024-03-23T04:41:21;6.20;;;2.57;;
81627;SDS011;71036;51.102;6.514;2024-03-23T04:43:46;10.50;;;3.30;;
81627;SDS011;71036;51.102;6.514;2024-03-23T04:46:12;10.80;;;3.23;;
81627;SDS011;71036;51.102;6.514;2024-03-23T04:48:37;7.27;;;3.00;;
81627;SDS011;71036;51.102;6.514;2024-03-23T04:51:03;11.33;;;3.80;;
81627;SDS011;71036;51.102;6.514;2024-03-23T04:53:29;15.97;;;3.97;;
81627;SDS011;71036;51.102;6.514;2024-03-23T04:55:55;18.47;;;3.20;;
81627;SDS011;71036;51.102;6.514;2024-03-23T04:58:22;10.67;;;3.23;;
81627;SDS011;71036;51.102;6.514;2024-03-23T05:00:48;13.07;;;2.90;;
81627;SDS011;71036;51.102;6.514;2024-03-23T05:03:18;15.03;;;3.37;;
81627;SDS011;71036;51.102;6.514;2024-03-23T05:05:46;21.10;;;2.83;;
81627;SDS011;71036;51.102;6.514;2024-03-23T05:08:11;11.80;;;2.40;;
81627;SDS011;71036;51.102;6.514;2024-03-23T05:10:37;12.80;;;2.20;;
81627;SDS011;71036;51.102;6.514;2024-03-23T05:13:03;4.30;;;2.30;;
81627;SDS011;71036;51.102;6.514;2024-03-23T05:15:28;11.53;;;2.10;;
81627;SDS011;71036;51.102;6.514;2024-03-23T05:17:54;8.33;;;2.30;;
81627;SDS011;71036;51.102;6.514;2024-03-23T05:20:20;6.03;;;2.70;;
81627;SDS011;71036;51.102;6.514;2024-03-23T05:22:45;11.73;;;3.40;;
81627;SDS011;71036;51.102;6.514;2024-03-23T05:25:11;16.53;;;3.47;;
81627;SDS011;71036;51.102;6.514;2024-03-23T05:27:37;7.03;;;2.87;;
81627;SDS011;71036;51.102;6.514;2024-03-23T05:30:02;13.47;;;2.33;;
81627;SDS011;71036;51.102;6.514;2024-03-23T05:32:29;11.57;;;3.50;;
81627;SDS011;71036;51.102;6.514;2024-03-23T05:34:54;10.07;;;2.77;;
81627;SDS011;71036;51.102;6.514;2024-03-23T05:37:23;15.33;;;4.47;;
81627;SDS011;71036;51.102;6.514;2024-03-23T05:39:48;14.70;;;2.40;;
81627;SDS011;71036;51.102;6.514;2024-03-23T05:42:17;16.70;;;5.37;;
81627;SDS011;71036;51.102;6.514;2024-03-23T05:44:43;14.10;;;3.10;;
81627;SDS011;71036;51.102;6.514;2024-03-23T05:47:12;18.70;;;4.10;;
81627;SDS011;71036;51.102;6.514;2024-03-23T05:49:39;14.93;;;3.80;;
81627;SDS011;71036;51.102;6.514;2024-03-23T05:52:06;29.53;;;3.67;;
81627;SDS011;71036;51.102;6.514;2024-03-23T05:54:32;11.00;;;3.47;;
81627;SDS011;71036;51.102;6.514;2024-03-23T05:56:57;8.60;;;3.37;;
81627;SDS011;71036;51.102;6.514;2024-03-23T05:59:23;19.70;;;3.30;;
81627;SDS011;71036;51.102;6.514;2024-03-23T06:01:48;17.43;;;3.63;;
81627;SDS011;71036;51.102;6.514;2024-03-23T06:04:14;15.23;;;3.30;;
81627;SDS011;71036;51.102;6.514;2024-03-23T06:06:39;10.27;;;4.50;;
81627;SDS011;71036;51.102;6.514;2024-03-23T06:09:05;15.20;;;4.20;;
81627;SDS011;71036;51.102;6.514;2024-03-23T06:11:30;25.30;;;4.40;;
81627;SDS011;71036;51.102;6.514;2024-03-23T06:13:56;27.13;;;3.90;;
81627;SDS011;71036;51.102;6.514;2024-03-23T06:16:21;15.53;;;4.67;;
81627;SDS011;71036;51.102;6.514;2024-03-23T06:18:50;11.03;;;3.67;;
81627;SDS011;71036;51.102;6.514;2024-03-23T06:21:16;24.30;;;5.10;;
81627;SDS011;71036;51.102;6.514;2024-03-23T06:23:41;14.27;;;3.87;;
81627;SDS011;71036;51.102;6.514;2024-03-23T06:26:07;7.53;;;3.57;;
81627;SDS011;71036;51.102;6.514;2024-03-23T06:28:33;13.87;;;4.70;;
81627;SDS011;71036;51.102;6.514;2024-03-23T06:30:59;16.63;;;3.77;;
81627;SDS011;71036;51.102;6.514;2024-03-23T06:33:24;9.10;;;3.77;;
81627;SDS011;71036;51.102;6.514;2024-03-23T06:35:50;23.30;;;4.70;;
81627;SDS011;71036;51.102;6.514;2024-03-23T06:38:17;16.60;;;4.60;;
81627;SDS011;71036;51.102;6.514;2024-03-23T06:40:42;20.33;;;3.93;;
81627;SDS011;71036;51.102;6.514;2024-03-23T06:43:12;18.53;;;4.70;;
81627;SDS011;71036;51.102;6.514;2024-03-23T06:45:38;20.63;;;5.03;;
81627;SDS011;71036;51.102;6.514;2024-03-23T06:48:03;15.20;;;4.53;;
81627;SDS011;71036;51.102;6.514;2024-03-23T06:50:29;13.37;;;3.90;;
81627;SDS011;71036;51.102;6.514;2024-03-23T06:52:54;12.97;;;3.90;;
81627;SDS011;71036;51.102;6.514;2024-03-23T06:55:19;14.13;;;5.23;;
81627;SDS011;71036;51.102;6.514;2024-03-23T06:57:45;16.30;;;4.13;;
81627;SDS011;71036;51.102;6.514;2024-03-23T07:00:10;20.43;;;5.63;;
81627;SDS011;71036;51.102;6.514;2024-03-23T07:02:36;21.10;;;4.17;;
81627;SDS011;71036;51.102;6.514;2024-03-23T07:05:02;11.37;;;3.97;;
81627;SDS011;71036;51.102;6.514;2024-03-23T07:07:28;19.13;;;4.50;;
81627;SDS011;71036;51.102;6.514;2024-03-23T07:09:55;20.13;;;4.87;;
81627;SDS011;71036;51.102;6.514;2024-03-23T07:12:20;14.90;;;4.50;;
81627;SDS011;71036;51.102;6.514;2024-03-23T07:14:46;12.40;;;4.40;;
81627;SDS011;71036;51.102;6.514;2024-03-23T07:17:11;13.37;;;4.50;;
81627;SDS011;71036;51.102;6.514;2024-03-23T07:19:36;11.63;;;4.30;;
81627;SDS011;71036;51.102;6.514;2024-03-23T07:22:02;10.03;;;4.30;;
81627;SDS011;71036;51.102;6.514;2024-03-23T07:24:27;15.73;;;6.20;;
81627;SDS011;71036;51.102;6.514;2024-03-23T07:26:52;19.27;;;6.27;;
81627;SDS011;71036;51.102;6.514;2024-03-23T07:29:19;17.53;;;6.20;;
81627;SDS011;71036;51.102;6.514;2024-03-23T07:31:44;13.93;;;5.33;;
81627;SDS011;71036;51.102;6.514;2024-03-23T07:34:10;25.00;;;6.87;;
81627;SDS011;71036;51.102;6.514;2024-03-23T07:36:35;9.73;;;4.80;;
81627;SDS011;71036;51.102;6.514;2024-03-23T07:39:03;11.57;;;4.23;;
81627;SDS011;71036;51.102;6.514;2024-03-23T07:41:28;12.70;;;5.10;;
81627;SDS011;71036;51.102;6.514;2024-03-23T07:43:55;17.30;;;4.10;;
81627;SDS011;71036;51.102;6.514;2024-03-23T07:46:21;13.77;;;4.17;;
81627;SDS011;71036;51.102;6.514;2024-03-23T07:48:46;13.70;;;3.57;;
81627;SDS011;71036;51.102;6.514;2024-03-23T07:51:20;8.80;;;2.40;;
81627;SDS011;71036;51.102;6.514;2024-03-23T07:53:46;9.83;;;2.67;;
81627;SDS011;71036;51.102;6.514;2024-03-23T07:56:13;5.93;;;1.90;;
81627;SDS011;71036;51.102;6.514;2024-03-23T07:58:40;5.90;;;2.87;;
81627;SDS011;71036;51.102;6.514;2024-03-23T08:01:07;5.27;;;2.40;;
81627;SDS011;71036;51.102;6.514;2024-03-23T08:03:34;5.57;;;2.03;;
81627;SDS011;71036;51.102;6.514;2024-03-23T08:06:16;16.70;;;2.57;;
81627;SDS011;71036;51.102;6.514;2024-03-23T08:08:43;5.93;;;2.20;;
81627;SDS011;71036;51.102;6.514;2024-03-23T08:11:10;5.73;;;2.23;;
81627;SDS011;71036;51.102;6.514;2024-03-23T08:13:36;5.80;;;1.83;;
81627;SDS011;71036;51.102;6.514;2024-03-23T08:16:03;10.03;;;1.90;;
81627;SDS011;71036;51.102;6.514;2024-03-23T08:18:29;4.47;;;1.77;;
81627;SDS011;71036;51.102;6.514;2024-03-23T08:20:59;6.20;;;1.90;;
81627;SDS011;71036;51.102;6.514;2024-03-23T08:23:26;14.93;;;2.60;;
81627;SDS011;71036;51.102;6.514;2024-03-23T08:25:57;10.20;;;2.63;;
81627;SDS011;71036;51.102;6.514;2024-03-23T08:28:22;7.13;;;2.13;;
81627;SDS011;71036;51.102;6.514;2024-03-23T08:30:48;9.30;;;2.13;;
81627;SDS011;71036;51.102;6.514;2024-03-23T08:33:14;5.73;;;2.23;;
81627;SDS011;71036;51.102;6.514;2024-03-23T08:35:39;10.33;;;2.40;;
81627;SDS011;71036;51.102;6.514;2024-03-23T08:38:05;16.40;;;2.50;;
81627;SDS011;71036;51.102;6.514;2024-03-23T08:40:30;12.93;;;2.93;;
81627;SDS011;71036;51.102;6.514;2024-03-23T08:42:55;8.30;;;3.00;;
81627;SDS011;71036;51.102;6.514;2024-03-23T08:45:21;13.00;;;3.50;;
81627;SDS011;71036;51.102;6.514;2024-03-23T08:47:46;9.90;;;3.20;;
81627;SDS011;71036;51.102;6.514;2024-03-23T08:50:11;6.43;;;2.63;;
81627;SDS011;71036;51.102;6.514;2024-03-23T08:52:37;13.90;;;4.33;;
81627;SDS011;71036;51.102;6.514;2024-03-23T08:55:02;8.50;;;2.80;;
81627;SDS011;71036;51.102;6.514;2024-03-23T08:57:27;4.97;;;2.00;;
81627;SDS011;71036;51.102;6.514;2024-03-23T08:59:53;8.00;;;3.70;;
81627;SDS011;71036;51.102;6.514;2024-03-23T09:02:18;16.90;;;2.87;;
81627;SDS011;71036;51.102;6.514;2024-03-23T09:04:44;5.57;;;2.30;;
81627;SDS011;71036;51.102;6.514;2024-03-23T09:07:10;16.80;;;2.80;;
81627;SDS011;71036;51.102;6.514;2024-03-23T09:09:37;7.90;;;2.17;;
81627;SDS011;71036;51.102;6.514;2024-03-23T09:12:03;12.17;;;2.63;;
81627;SDS011;71036;51.102;6.514;2024-03-23T09:14:29;7.30;;;2.70;;
81627;SDS011;71036;51.102;6.514;2024-03-23T09:16:54;8.43;;;2.73;;
81627;SDS011;71036;51.102;6.514;2024-03-23T09:19:20;10.57;;;2.70;;
81627;SDS011;71036;51.102;6.514;2024-03-23T09:21:45;6.20;;;2.07;;
81627;SDS011;71036;51.102;6.514;2024-03-23T09:24:11;4.97;;;1.87;;
81627;SDS011;71036;51.102;6.514;2024-03-23T09:26:36;18.27;;;2.63;;
81627;SDS011;71036;51.102;6.514;2024-03-23T09:29:01;3.77;;;1.23;;
81627;SDS011;71036;51.102;6.514;2024-03-23T09:31:27;5.80;;;1.47;;
81627;SDS011;71036;51.102;6.514;2024-03-23T09:33:52;10.47;;;1.67;;
81627;SDS011;71036;51.102;6.514;2024-03-23T09:36:17;6.80;;;2.07;;
81627;SDS011;71036;51.102;6.514;2024-03-23T09:38:43;6.50;;;1.17;;
81627;SDS011;71036;51.102;6.514;2024-03-23T09:41:08;14.40;;;2.43;;
81627;SDS011;71036;51.102;6.514;2024-03-23T09:43:34;5.90;;;1.40;;
81627;SDS011;71036;51.102;6.514;2024-03-23T09:46:01;13.70;;;1.60;;
81627;SDS011;71036;51.102;6.514;2024-03-23T09:48:27;8.03;;;1.13;;
81627;SDS011;71036;51.102;6.514;2024-03-23T09:50:52;23.20;;;2.20;;
81627;SDS011;71036;51.102;6.514;2024-03-23T09:53:18;14.83;;;2.03;;
81627;SDS011;71036;51.102;6.514;2024-03-23T09:55:44;13.73;;;2.10;;
81627;SDS011;71036;51.102;6.514;2024-03-23T09:58:13;5.13;;;1.57;;
81627;SDS011;71036;51.102;6.514;2024-03-23T10:00:40;3.00;;;1.20;;
81627;SDS011;71036;51.102;6.514;2024-03-23T10:03:06;5.23;;;1.20;;
81627;SDS011;71036;51.102;6.514;2024-03-23T10:05:32;7.53;;;1.20;;
81627;SDS011;71036;51.102;6.514;2024-03-23T10:08:04;8.33;;;1.47;;
81627;SDS011;71036;51.102;6.514;2024-03-23T10:10:43;6.73;;;1.10;;
81627;SDS011;71036;51.102;6.514;2024-03-23T10:13:09;3.60;;;1.07;;
81627;SDS011;71036;51.102;6.514;2024-03-23T10:15:35;12.13;;;0.90;;
81627;SDS011;71036;51.102;6.514;2024-03-23T10:18:20;9.03;;;1.20;;
81627;SDS011;71036;51.102;6.514;2024-03-23T10:20:50;4.70;;;1.30;;
81627;SDS011;71036;51.102;6.514;2024-03-23T10:23:17;3.70;;;0.77;;
81627;SDS011;71036;51.102;6.514;2024-03-23T10:25:42;7.03;;;1.33;;
81627;SDS011;71036;51.102;6.514;2024-03-23T10:28:08;14.87;;;1.43;;
81627;SDS011;71036;51.102;6.514;2024-03-23T10:30:34;6.63;;;0.80;;
81627;SDS011;71036;51.102;6.514;2024-03-23T10:33:06;4.97;;;1.53;;
81627;SDS011;71036;51.102;6.514;2024-03-23T10:35:33;3.80;;;1.60;;
81627;SDS011;71036;51.102;6.514;2024-03-23T10:37:58;4.30;;;0.80;;
81627;SDS011;71036;51.102;6.514;2024-03-23T10:40:23;11.50;;;1.03;;
81627;SDS011;71036;51.102;6.514;2024-03-23T10:42:49;2.40;;;0.60;;
81627;SDS011;71036;51.102;6.514;2024-03-23T10:45:17;4.70;;;0.80;;
81627;SDS011;71036;51.102;6.514;2024-03-23T10:47:42;1.63;;;0.67;;
81627;SDS011;71036;51.102;6.514;2024-03-23T10:50:08;6.83;;;1.00;;
81627;SDS011;71036;51.102;6.514;2024-03-23T10:52:34;12.53;;;0.83;;
81627;SDS011;71036;51.102;6.514;2024-03-23T10:55:00;2.93;;;1.00;;
81627;SDS011;71036;51.102;6.514;2024-03-23T10:57:31;4.83;;;0.67;;
81627;SDS011;71036;51.102;6.514;2024-03-23T11:00:02;5.90;;;0.67;;
81627;SDS011;71036;51.102;6.514;2024-03-23T11:02:29;3.03;;;0.60;;
81627;SDS011;71036;51.102;6.514;2024-03-23T11:04:54;0.80;;;0.70;;
81627;SDS011;71036;51.102;6.514;2024-03-23T11:07:28;2.10;;;1.00;;
81627;SDS011;71036;51.102;6.514;2024-03-23T11:09:55;4.03;;;0.90;;
81627;SDS011;71036;51.102;6.514;2024-03-23T11:14:50;2.70;;;0.77;;
81627;SDS011;71036;51.102;6.514;2024-03-23T11:17:23;2.80;;;0.80;;
81627;SDS011;71036;51.102;6.514;2024-03-23T11:20:07;3.23;;;0.63;;
81627;SDS011;71036;51.102;6.514;2024-03-23T11:22:45;0.90;;;0.57;;
81627;SDS011;71036;51.102;6.514;2024-03-23T11:25:17;6.43;;;0.50;;
81627;SDS011;71036;51.102;6.514;2024-03-23T11:27:44;1.47;;;0.73;;
81627;SDS011;71036;51.102;6.514;2024-03-23T11:30:14;2.67;;;0.70;;
81627;SDS011;71036;51.102;6.514;2024-03-23T11:32:41;2.43;;;1.30;;
81627;SDS011;71036;51.102;6.514;2024-03-23T11:35:07;4.57;;;0.97;;
81627;SDS011;71036;51.102;6.514;2024-03-23T11:37:34;7.17;;;1.57;;
81627;SDS011;71036;51.102;6.514;2024-03-23T11:40:01;4.20;;;1.43;;
81627;SDS011;71036;51.102;6.514;2024-03-23T11:42:41;1.90;;;1.07;;
81627;SDS011;71036;51.102;6.514;2024-03-23T11:45:09;7.80;;;0.70;;
81627;SDS011;71036;51.102;6.514;2024-03-23T11:47:35;2.10;;;0.60;;
81627;SDS011;71036;51.102;6.514;2024-03-23T11:50:00;1.00;;;0.50;;
81627;SDS011;71036;51.102;6.514;2024-03-23T11:52:25;2.83;;;0.70;;
81627;SDS011;71036;51.102;6.514;2024-03-23T11:54:51;3.10;;;0.77;;
81627;SDS011;71036;51.102;6.514;2024-03-23T11:57:16;3.17;;;0.67;;
81627;SDS011;71036;51.102;6.514;2024-03-23T11:59:41;5.33;;;0.90;;
81627;SDS011;71036;51.102;6.514;2024-03-23T12:02:07;2.90;;;1.03;;
81627;SDS011;71036;51.102;6.514;2024-03-23T12:04:35;1.37;;;1.27;;
81627;SDS011;71036;51.102;6.514;2024-03-23T12:09:46;2.10;;;0.70;;
81627;SDS011;71036;51.102;6.514;2024-03-23T12:12:15;6.40;;;0.97;;
81627;SDS011;71036;51.102;6.514;2024-03-23T12:14:42;3.70;;;1.07;;
81627;SDS011;71036;51.102;6.514;2024-03-23T12:17:14;3.80;;;1.03;;
81627;SDS011;71036;51.102;6.514;2024-03-23T12:19:40;1.60;;;0.57;;
81627;SDS011;71036;51.102;6.514;2024-03-23T12:22:06;2.30;;;0.50;;
81627;SDS011;71036;51.102;6.514;2024-03-23T12:24:33;1.70;;;0.53;;
81627;SDS011;71036;51.102;6.514;2024-03-23T12:27:02;4.30;;;1.00;;
81627;SDS011;71036;51.102;6.514;2024-03-23T12:29:32;0.90;;;0.40;;
81627;SDS011;71036;51.102;6.514;2024-03-23T12:32:01;1.30;;;0.60;;
81627;SDS011;71036;51.102;6.514;2024-03-23T12:34:28;3.47;;;0.70;;
81627;SDS011;71036;51.102;6.514;2024-03-23T12:36:55;2.50;;;0.73;;
81627;SDS011;71036;51.102;6.514;2024-03-23T12:39:21;5.17;;;0.50;;
81627;SDS011;71036;51.102;6.514;2024-03-23T12:41:46;1.63;;;0.70;;
81627;SDS011;71036;51.102;6.514;2024-03-23T12:44:12;1.03;;;0.50;;
81627;SDS011;71036;51.102;6.514;2024-03-23T12:46:38;3.87;;;0.80;;
81627;SDS011;71036;51.102;6.514;2024-03-23T12:49:04;4.00;;;0.70;;
81627;SDS011;71036;51.102;6.514;2024-03-23T12:51:30;3.50;;;0.90;;
81627;SDS011;71036;51.102;6.514;2024-03-23T12:53:55;3.30;;;0.90;;
81627;SDS011;71036;51.102;6.514;2024-03-23T12:56:21;3.17;;;1.43;;
81627;SDS011;71036;51.102;6.514;2024-03-23T12:58:46;6.07;;;1.23;;
81627;SDS011;71036;51.102;6.514;2024-03-23T13:01:16;2.23;;;0.83;;
81627;SDS011;71036;51.102;6.514;2024-03-23T13:03:46;9.60;;;0.93;;
81627;SDS011;71036;51.102;6.514;2024-03-23T13:06:12;1.63;;;0.57;;
81627;SDS011;71036;51.102;6.514;2024-03-23T13:08:37;1.83;;;1.23;;
81627;SDS011;71036;51.102;6.514;2024-03-23T13:11:02;2.60;;;1.00;;
81627;SDS011;71036;51.102;6.514;2024-03-23T13:13:28;5.03;;;1.00;;
81627;SDS011;71036;51.102;6.514;2024-03-23T13:15:53;6.53;;;1.37;;
81627;SDS011;71036;51.102;6.514;2024-03-23T13:18:18;4.77;;;1.03;;
81627;SDS011;71036;51.102;6.514;2024-03-23T13:20:44;1.70;;;1.03;;
81627;SDS011;71036;51.102;6.514;2024-03-23T13:23:09;5.30;;;1.10;;
81627;SDS011;71036;51.102;6.514;2024-03-23T13:25:35;2.07;;;1.10;;
81627;SDS011;71036;51.102;6.514;2024-03-23T13:28:01;1.43;;;0.80;;
81627;SDS011;71036;51.102;6.514;2024-03-23T13:30:26;5.13;;;1.20;;
81627;SDS011;71036;51.102;6.514;2024-03-23T13:32:51;5.13;;;1.30;;
81627;SDS011;71036;51.102;6.514;2024-03-23T13:35:17;2.87;;;0.87;;
81627;SDS011;71036;51.102;6.514;2024-03-23T13:37:42;4.40;;;0.80;;
81627;SDS011;71036;51.102;6.514;2024-03-23T13:40:08;9.73;;;0.90;;
81627;SDS011;71036;51.102;6.514;2024-03-23T13:42:34;1.73;;;0.73;;
81627;SDS011;71036;51.102;6.514;2024-03-23T13:44:59;3.20;;;0.80;;
81627;SDS011;71036;51.102;6.514;2024-03-23T13:47:24;0.80;;;0.70;;
81627;SDS011;71036;51.102;6.514;2024-03-23T13:49:49;0.90;;;0.50;;
81627;SDS011;71036;51.102;6.514;2024-03-23T13:52:15;2.10;;;0.80;;
81627;SDS011;71036;51.102;6.514;2024-03-23T13:54:41;2.33;;;0.73;;
81627;SDS011;71036;51.102;6.514;2024-03-23T13:57:11;1.40;;;0.70;;
81627;SDS011;71036;51.102;6.514;2024-03-23T13:59:42;9.03;;;0.93;;
81627;SDS011;71036;51.102;6.514;2024-03-23T14:02:08;1.07;;;0.50;;
81627;SDS011;71036;51.102;6.514;2024-03-23T14:04:33;3.30;;;0.63;;
81627;SDS011;71036;51.102;6.514;2024-03-23T14:06:58;4.30;;;0.80;;
81627;SDS011;71036;51.102;6.514;2024-03-23T14:09:23;4.90;;;1.10;;
81627;SDS011;71036;51.102;6.514;2024-03-23T14:11:50;7.63;;;1.07;;
81627;SDS011;71036;51.102;6.514;2024-03-23T14:14:16;1.10;;;0.90;;
81627;SDS011;71036;51.102;6.514;2024-03-23T14:16:42;8.93;;;1.37;;
81627;SDS011;71036;51.102;6.514;2024-03-23T14:19:10;1.97;;;0.80;;
81627;SDS011;71036;51.102;6.514;2024-03-23T14:21:35;1.50;;;1.23;;
81627;SDS011;71036;51.102;6.514;2024-03-23T14:24:00;2.00;;;0.77;;
81627;SDS011;71036;51.102;6.514;2024-03-23T14:26:27;1.40;;;1.00;;
81627;SDS011;71036;51.102;6.514;2024-03-23T14:28:52;6.23;;;0.93;;
81627;SDS011;71036;51.102;6.514;2024-03-23T14:31:18;2.60;;;1.00;;
81627;SDS011;71036;51.102;6.514;2024-03-23T14:33:43;2.40;;;0.70;;
81627;SDS011;71036;51.102;6.514;2024-03-23T14:36:15;4.83;;;0.60;;
81627;SDS011;71036;51.102;6.514;2024-03-23T14:38:47;2.60;;;0.57;;
81627;SDS011;71036;51.102;6.514;2024-03-23T14:41:13;2.07;;;0.60;;
81627;SDS011;71036;51.102;6.514;2024-03-23T14:43:38;1.03;;;0.50;;
81627;SDS011;71036;51.102;6.514;2024-03-23T14:48:33;0.70;;;0.50;;
81627;SDS011;71036;51.102;6.514;2024-03-23T14:50:59;2.30;;;0.60;;
81627;SDS011;71036;51.102;6.514;2024-03-23T14:53:25;3.07;;;0.50;;
81627;SDS011;71036;51.102;6.514;2024-03-23T14:55:54;1.47;;;0.70;;
81627;SDS011;71036;51.102;6.514;2024-03-23T14:58:19;1.10;;;0.53;;
81627;SDS011;71036;51.102;6.514;2024-03-23T15:00:45;0.90;;;0.50;;
81627;SDS011;71036;51.102;6.514;2024-03-23T15:03:10;3.00;;;0.90;;
81627;SDS011;71036;51.102;6.514;2024-03-23T15:05:35;1.07;;;0.50;;
81627;SDS011;71036;51.102;6.514;2024-03-23T15:08:02;1.83;;;1.00;;
81627;SDS011;71036;51.102;6.514;2024-03-23T15:10:28;3.23;;;1.20;;
81627;SDS011;71036;51.102;6.514;2024-03-23T15:12:53;2.70;;;1.03;;
81627;SDS011;71036;51.102;6.514;2024-03-23T15:15:18;1.53;;;0.60;;
81627;SDS011;71036;51.102;6.514;2024-03-23T15:17:44;0.90;;;0.60;;
81627;SDS011;71036;51.102;6.514;2024-03-23T15:20:10;3.03;;;0.70;;
81627;SDS011;71036;51.102;6.514;2024-03-23T15:22:38;0.90;;;0.40;;
81627;SDS011;71036;51.102;6.514;2024-03-23T15:25:04;0.83;;;0.40;;
81627;SDS011;71036;51.102;6.514;2024-03-23T15:27:29;1.03;;;0.50;;
81627;SDS011;71036;51.102;6.514;2024-03-23T15:29:55;0.60;;;0.40;;
81627;SDS011;71036;51.102;6.514;2024-03-23T15:32:22;3.63;;;0.60;;
81627;SDS011;71036;51.102;6.514;2024-03-23T15:34:48;4.10;;;0.70;;
81627;SDS011;71036;51.102;6.514;2024-03-23T15:37:13;3.53;;;0.80;;
81627;SDS011;71036;51.102;6.514;2024-03-23T15:39:39;0.70;;;0.50;;